createdAt,value
2023-01-01T00:01:11.661Z,71.68
2023-01-01T00:04:15.903Z,70.01
2023-01-01T00:07:17.981Z,69.98
2023-01-01T00:10:31.095Z,71.34
2023-01-01T00:13:33.658Z,70.22
2023-01-01T00:16:35.820Z,70.85
2023-01-01T00:19:38.525Z,70.47
2023-01-01T00:22:54.625Z,70.51
2023-01-01T00:25:57.967Z,71.41
2023-01-01T00:29:00.148Z,72.77
2023-01-01T00:32:02.358Z,73.27
2023-01-01T00:35:05.269Z,74.45
2023-01-01T00:38:07.700Z,74.33
2023-01-01T00:41:10.216Z,74.86
2023-01-01T00:44:12.171Z,75.24
2023-01-01T00:47:14.285Z,75.02
2023-01-01T00:50:16.835Z,75.57
2023-01-01T00:53:20.230Z,74.99
2023-01-01T00:56:22.232Z,75.25
2023-01-01T00:59:28.708Z,74.56
2023-01-01T01:02:31.395Z,74.80
2023-01-01T01:05:37.190Z,74.64
2023-01-01T01:08:42.304Z,75.09
2023-01-01T01:11:44.347Z,74.94
2023-01-01T01:14:47.456Z,75.02
2023-01-01T01:17:49.639Z,75.30
2023-01-01T01:20:53.643Z,75.71
2023-01-01T01:23:59.945Z,75.47
2023-01-01T01:27:02.047Z,75.16
2023-01-01T01:30:04.786Z,75.51
2023-01-01T01:33:06.865Z,74.67
2023-01-01T01:36:11.104Z,75.32
2023-01-01T01:39:13.152Z,75.18
2023-01-01T01:42:19.000Z,74.94
2023-01-01T01:45:21.332Z,74.67
2023-01-01T01:48:24.951Z,74.12
2023-01-01T01:51:32.489Z,73.33
2023-01-01T01:54:34.577Z,74.16
2023-01-01T01:57:39.210Z,74.33
2023-01-01T02:00:41.463Z,74.47
2023-01-01T02:04:09.718Z,75.19
2023-01-01T02:07:15.155Z,74.21
2023-01-01T02:10:19.555Z,73.73
2023-01-01T02:13:22.211Z,73.11
2023-01-01T02:16:40.071Z,73.01
2023-01-01T02:20:03.458Z,72.33
2023-01-01T02:23:05.568Z,71.88
2023-01-01T02:26:40.739Z,71.90
2023-01-01T02:29:48.164Z,71.93
2023-01-01T02:32:59.172Z,71.06
2023-01-01T02:36:06.606Z,70.32
2023-01-01T02:39:10.868Z,70.12
2023-01-01T02:42:13.815Z,69.96
2023-01-01T02:45:16.058Z,68.92
2023-01-01T02:48:36.633Z,69.26
2023-01-01T02:52:04.404Z,69.28
2023-01-01T02:55:30.881Z,68.73
2023-01-01T02:59:11.562Z,69.62
2023-01-01T03:02:25.295Z,69.28
2023-01-01T03:06:04.803Z,69.71
2023-01-01T03:09:38.935Z,69.16
2023-01-01T03:12:56.057Z,68.74
2023-01-01T03:16:13.407Z,68.76
2023-01-01T03:19:20.891Z,68.75
2023-01-01T03:22:29.394Z,68.79
2023-01-01T03:25:38.886Z,67.75
2023-01-01T03:28:53.083Z,67.86
2023-01-01T03:31:59.483Z,67.20
2023-01-01T03:35:03.510Z,67.63
2023-01-01T03:38:21.308Z,67.41
2023-01-01T03:41:44.651Z,67.79
2023-01-01T03:44:51.076Z,67.82
2023-01-01T03:47:53.554Z,68.10
2023-01-01T03:51:19.543Z,68.52
2023-01-01T03:54:33.419Z,68.79
2023-01-01T03:57:57.225Z,69.00
2023-01-01T04:01:11.434Z,68.42
2023-01-01T04:04:16.023Z,67.92
2023-01-01T04:07:18.503Z,68.13
2023-01-01T04:10:21.776Z,67.62
2023-01-01T04:13:24.272Z,68.00
2023-01-01T04:16:26.720Z,67.22
2023-01-01T04:19:29.372Z,66.75
2023-01-01T04:22:31.501Z,66.58
2023-01-01T04:25:34.915Z,66.42
2023-01-01T04:28:36.896Z,67.11
2023-01-01T04:31:38.918Z,66.80
2023-01-01T04:34:41.049Z,66.72
2023-01-01T04:37:44.656Z,67.12
2023-01-01T04:40:47.654Z,67.23
2023-01-01T04:43:50.779Z,67.08
2023-01-01T04:46:56.906Z,67.30
2023-01-01T04:50:02.162Z,67.05
2023-01-01T04:53:04.177Z,67.47
2023-01-01T04:56:16.602Z,66.89
2023-01-01T04:59:18.657Z,67.29
2023-01-01T05:02:21.115Z,67.10
2023-01-01T05:05:23.299Z,66.73
2023-01-01T05:08:25.600Z,65.90
2023-01-01T05:11:31.173Z,65.93
2023-01-01T05:14:33.983Z,66.24
2023-01-01T05:17:36.087Z,66.01
2023-01-01T05:20:39.534Z,66.33
2023-01-01T05:23:41.965Z,65.87
2023-01-01T05:26:46.711Z,66.17
2023-01-01T05:29:48.803Z,66.59
2023-01-01T05:32:51.292Z,66.48
2023-01-01T05:35:54.951Z,67.00
2023-01-01T05:38:58.465Z,66.49
2023-01-01T05:42:00.512Z,66.33
2023-01-01T05:45:03.841Z,66.29
2023-01-01T05:48:07.402Z,66.90
2023-01-01T05:51:18.311Z,68.66
2023-01-01T05:54:20.357Z,68.66
2023-01-01T05:57:22.505Z,66.18
2023-01-01T06:00:24.680Z,64.95
2023-01-01T06:03:26.684Z,63.94
2023-01-01T06:06:33.489Z,61.82
2023-01-01T06:09:35.565Z,61.44
2023-01-01T06:12:37.729Z,60.08
2023-01-01T06:15:39.864Z,59.65
2023-01-01T06:18:42.023Z,68.73
2023-01-01T06:21:44.096Z,69.27
2023-01-01T06:24:46.298Z,73.62
2023-01-01T06:27:48.412Z,79.93
2023-01-01T06:30:50.496Z,85.66
2023-01-01T06:33:52.907Z,88.92
2023-01-01T06:36:54.900Z,88.05
2023-01-01T06:39:56.891Z,88.69
2023-01-01T06:42:58.914Z,87.53
2023-01-01T06:46:05.272Z,86.04
2023-01-01T06:49:11.201Z,87.19
2023-01-01T06:52:13.380Z,85.12
2023-01-01T06:55:15.436Z,85.02
2023-01-01T06:58:17.475Z,83.57
2023-01-01T07:01:25.749Z,82.88
2023-01-01T07:04:27.833Z,85.86
2023-01-01T07:07:35.620Z,86.59
2023-01-01T07:10:37.982Z,85.80
2023-01-01T07:13:40.009Z,85.15
2023-01-01T07:16:42.170Z,85.06
2023-01-01T07:19:44.267Z,85.67
2023-01-01T07:22:47.052Z,85.18
2023-01-01T07:25:50.273Z,83.88
2023-01-01T07:28:52.810Z,85.91
2023-01-01T07:31:55.001Z,85.91
2023-01-01T07:35:00.118Z,83.63
2023-01-01T07:38:02.206Z,81.98
2023-01-01T07:41:05.622Z,79.58
2023-01-01T07:44:07.816Z,78.77
2023-01-01T07:47:22.834Z,78.46
2023-01-01T07:50:26.615Z,78.20
2023-01-01T07:53:28.891Z,79.43
2023-01-01T07:56:31.176Z,81.19
2023-01-01T07:59:33.397Z,78.44
2023-01-01T08:02:35.858Z,71.37
2023-01-01T08:05:38.617Z,69.69
2023-01-01T08:08:41.513Z,65.54
2023-01-01T08:11:43.709Z,69.51
2023-01-01T08:14:45.918Z,72.20
2023-01-01T08:17:47.919Z,74.37
2023-01-01T08:20:50.324Z,76.27
2023-01-01T08:23:54.094Z,71.51
2023-01-01T08:26:56.118Z,62.51
2023-01-01T08:29:58.156Z,58.88
2023-01-01T08:33:00.217Z,57.46
2023-01-01T08:36:02.675Z,58.78
2023-01-01T08:39:04.846Z,57.40
2023-01-01T08:42:12.180Z,58.21
2023-01-01T08:45:14.735Z,56.52
2023-01-01T08:48:16.787Z,54.20
2023-01-01T08:51:18.942Z,55.59
2023-01-01T08:54:21.030Z,54.96
2023-01-01T08:57:23.359Z,55.64
2023-01-01T09:00:25.601Z,59.41
2023-01-01T09:03:28.013Z,58.49
2023-01-01T09:06:30.270Z,60.64
2023-01-01T09:09:32.447Z,60.39
2023-01-01T09:12:35.132Z,60.47
2023-01-01T09:15:38.680Z,62.44
2023-01-01T09:18:40.725Z,60.51
2023-01-01T09:21:44.055Z,60.31
2023-01-01T09:24:46.169Z,59.69
2023-01-01T09:27:48.282Z,58.92
2023-01-01T09:30:50.398Z,58.73
2023-01-01T09:33:52.434Z,58.17
2023-01-01T09:36:54.431Z,57.88
2023-01-01T09:39:56.399Z,57.86
2023-01-01T09:43:33.656Z,58.68
2023-01-01T09:46:36.974Z,59.51
2023-01-01T09:49:44.627Z,57.85
2023-01-01T09:53:03.329Z,56.14
2023-01-01T09:56:06.584Z,56.77
2023-01-01T09:59:11.159Z,59.36
2023-01-01T10:02:48.073Z,59.00
2023-01-01T10:06:18.036Z,58.39
2023-01-01T10:09:27.937Z,58.30
2023-01-01T10:12:35.319Z,58.84
2023-01-01T10:15:42.697Z,59.95
2023-01-01T10:22:24.011Z,66.06
2023-01-01T10:25:40.663Z,67.08
2023-01-01T10:28:49.937Z,72.07
2023-01-01T10:32:05.563Z,76.02
2023-01-01T10:35:17.903Z,77.59
2023-01-01T10:38:26.775Z,77.98
2023-01-01T10:41:28.896Z,77.50
2023-01-01T10:44:34.054Z,75.33
2023-01-01T10:47:36.243Z,74.86
2023-01-01T10:50:46.468Z,73.23
2023-01-01T10:53:52.454Z,73.32
2023-01-01T10:56:54.643Z,71.63
2023-01-01T11:00:11.785Z,72.04
2023-01-01T11:03:21.955Z,71.81
2023-01-01T11:06:34.112Z,71.15
2023-01-01T11:09:38.796Z,69.79
2023-01-01T11:13:04.680Z,70.49
2023-01-01T11:16:11.465Z,69.88
2023-01-01T11:19:25.073Z,69.64
2023-01-01T11:22:59.497Z,69.34
2023-01-01T11:26:06.695Z,69.59
2023-01-01T11:29:17.732Z,69.05
2023-01-01T11:32:29.253Z,69.22
2023-01-01T11:35:38.274Z,69.06
2023-01-01T11:38:40.334Z,67.90
2023-01-01T11:41:50.756Z,68.45
2023-01-01T11:45:00.803Z,68.14
2023-01-01T11:48:06.473Z,62.58
2023-01-01T11:51:11.962Z,57.26
2023-01-01T11:54:32.988Z,58.17
2023-01-01T11:57:41.082Z,57.22
2023-01-01T12:00:50.123Z,54.55
2023-01-01T12:04:01.509Z,54.50
2023-01-01T12:07:19.364Z,55.48
2023-01-01T12:11:08.457Z,53.24
2023-01-01T12:14:37.296Z,54.28
2023-01-01T12:17:50.376Z,52.67
2023-01-01T12:21:13.588Z,53.34
2023-01-01T12:24:15.879Z,55.68
2023-01-01T12:27:27.088Z,55.80
2023-01-01T12:30:52.485Z,55.80
2023-01-01T12:34:06.535Z,57.56
2023-01-01T12:37:43.706Z,58.36
2023-01-01T12:40:57.634Z,60.23
2023-01-01T12:44:21.294Z,60.68
2023-01-01T12:47:39.984Z,62.10
2023-01-01T12:51:07.518Z,62.59
2023-01-01T12:54:18.737Z,62.45
2023-01-01T12:57:30.605Z,61.49
2023-01-01T13:00:33.690Z,61.98
2023-01-01T13:03:49.467Z,61.23
2023-01-01T13:06:56.375Z,60.76
2023-01-01T13:10:08.825Z,60.43
2023-01-01T13:13:12.569Z,60.37
2023-01-01T13:16:34.019Z,53.25
2023-01-01T13:19:41.075Z,51.83
2023-01-01T13:22:44.416Z,52.55
2023-01-01T13:25:46.394Z,52.24
2023-01-01T13:28:57.499Z,49.63
2023-01-01T13:32:04.410Z,53.88
2023-01-01T13:35:16.518Z,53.21
2023-01-01T13:38:53.590Z,53.01
2023-01-01T13:41:55.616Z,56.21
2023-01-01T13:44:57.879Z,58.23
2023-01-01T13:48:27.893Z,58.63
2023-01-01T13:52:05.838Z,59.64
2023-01-01T13:55:36.828Z,60.52
2023-01-01T13:58:39.808Z,60.87
2023-01-01T14:01:53.228Z,62.14
2023-01-01T14:05:02.574Z,63.60
2023-01-01T14:08:13.132Z,63.30
2023-01-01T14:11:25.280Z,64.47
2023-01-01T14:14:31.127Z,64.53
2023-01-01T14:17:36.321Z,66.08
2023-01-01T14:20:45.134Z,65.61
2023-01-01T14:23:55.289Z,66.04
2023-01-01T14:26:57.750Z,66.51
2023-01-01T14:29:59.809Z,66.44
2023-01-01T14:33:03.153Z,67.48
2023-01-01T14:39:46.345Z,66.64
2023-01-01T14:42:51.295Z,67.71
2023-01-01T14:45:54.563Z,67.87
2023-01-01T14:49:06.480Z,68.45
2023-01-01T14:52:25.276Z,69.13
2023-01-01T14:55:43.919Z,69.61
2023-01-01T14:58:46.014Z,69.61
2023-01-01T15:02:13.957Z,70.75
2023-01-01T15:05:34.957Z,70.30
2023-01-01T15:08:40.943Z,71.06
2023-01-01T15:11:43.569Z,72.57
2023-01-01T15:14:47.187Z,72.22
2023-01-01T15:17:50.268Z,72.14
2023-01-01T15:20:55.689Z,72.60
2023-01-01T15:24:37.966Z,73.12
2023-01-01T15:27:49.427Z,72.79
2023-01-01T15:30:56.766Z,72.50
2023-01-01T15:33:58.918Z,72.69
2023-01-01T15:37:28.295Z,72.35
2023-01-01T15:40:34.600Z,72.37
2023-01-01T15:43:36.620Z,72.56
2023-01-01T15:47:05.730Z,72.04
2023-01-01T15:50:09.270Z,72.31
2023-01-01T15:53:20.125Z,71.65
2023-01-01T15:56:25.659Z,71.72
2023-01-01T15:59:33.993Z,71.85
2023-01-01T16:02:37.613Z,72.96
2023-01-01T16:05:47.721Z,72.91
2023-01-01T16:08:49.915Z,73.63
2023-01-01T16:12:08.070Z,73.07
2023-01-01T16:15:16.485Z,73.47
2023-01-01T16:18:18.719Z,73.31
2023-01-01T16:21:21.936Z,73.74
2023-01-01T16:24:24.638Z,72.92
2023-01-01T16:27:27.001Z,73.03
2023-01-01T16:30:29.081Z,71.94
2023-01-01T16:33:31.372Z,73.33
2023-01-01T16:36:33.721Z,73.41
2023-01-01T16:39:35.795Z,73.21
2023-01-01T16:42:37.882Z,73.45
2023-01-01T16:45:39.907Z,74.13
2023-01-01T16:48:42.634Z,74.37
2023-01-01T16:51:44.767Z,74.62
2023-01-01T16:54:46.854Z,73.53
2023-01-01T16:57:49.014Z,73.28
2023-01-01T17:01:01.149Z,73.13
2023-01-01T17:04:03.384Z,73.08
2023-01-01T17:07:06.303Z,72.73
2023-01-01T17:10:09.730Z,72.16
2023-01-01T17:13:11.765Z,72.31
2023-01-01T17:16:21.156Z,72.32
2023-01-01T17:19:27.391Z,73.08
2023-01-01T17:22:34.167Z,72.15
2023-01-01T17:25:36.744Z,72.05
2023-01-01T17:28:38.841Z,71.60
2023-01-01T17:31:41.969Z,72.16
2023-01-01T17:34:43.996Z,72.31
2023-01-01T17:37:47.345Z,71.25
2023-01-01T17:40:49.405Z,72.70
2023-01-01T17:43:53.364Z,71.87
2023-01-01T17:46:56.416Z,71.83
2023-01-01T17:49:59.298Z,71.68
2023-01-01T17:53:01.456Z,71.38
2023-01-01T17:56:03.694Z,71.61
2023-01-01T17:59:06.125Z,71.08
2023-01-01T18:02:15.237Z,71.44
2023-01-01T18:05:21.302Z,71.47
2023-01-01T18:08:23.517Z,71.36
2023-01-01T18:11:28.745Z,74.01
2023-01-01T18:14:32.086Z,79.08
2023-01-01T18:17:34.196Z,83.15
2023-01-01T18:20:36.419Z,84.84
2023-01-01T18:23:39.945Z,83.57
2023-01-01T18:26:42.713Z,82.89
2023-01-01T18:29:45.413Z,83.22
2023-01-01T18:32:48.793Z,86.62
2023-01-01T18:35:51.253Z,87.97
2023-01-01T18:39:22.135Z,89.14
2023-01-01T18:42:57.983Z,89.42
2023-01-01T18:46:00.051Z,90.96
2023-01-01T18:49:08.828Z,89.31
2023-01-01T18:52:16.599Z,89.44
2023-01-01T18:55:19.525Z,88.71
2023-01-01T18:58:25.043Z,88.97
2023-01-01T19:01:27.157Z,89.48
2023-01-01T19:04:29.557Z,88.61
2023-01-01T19:07:31.722Z,87.83
2023-01-01T19:10:50.792Z,87.46
2023-01-01T19:14:01.066Z,86.73
2023-01-01T19:17:15.228Z,86.66
2023-01-01T19:20:24.187Z,85.98
2023-01-01T19:23:28.184Z,84.58
2023-01-01T19:26:34.659Z,83.66
2023-01-01T19:29:42.111Z,84.27
2023-01-01T19:32:46.136Z,84.14
2023-01-01T19:35:49.356Z,83.10
2023-01-01T19:38:54.551Z,82.38
2023-01-01T19:42:03.993Z,82.96
2023-01-01T19:45:08.685Z,83.06
2023-01-01T19:48:11.137Z,81.80
2023-01-01T19:51:14.372Z,81.96
2023-01-01T19:54:17.157Z,82.05
2023-01-01T19:57:21.081Z,82.00
2023-01-01T20:00:23.909Z,82.19
2023-01-01T20:03:52.775Z,81.12
2023-01-01T20:06:48.792Z,81.83
2023-01-01T20:09:51.026Z,82.40
2023-01-01T20:12:53.193Z,81.78
2023-01-01T20:15:59.243Z,83.02
2023-01-01T20:19:01.390Z,82.70
2023-01-01T20:22:14.313Z,82.97
2023-01-01T20:25:17.546Z,82.57
2023-01-01T20:28:42.003Z,81.95
2023-01-01T20:31:44.122Z,81.81
2023-01-01T20:34:46.336Z,81.67
2023-01-01T20:37:48.391Z,81.65
2023-01-01T20:40:52.909Z,81.95
2023-01-01T20:43:57.572Z,82.62
2023-01-01T20:47:00.921Z,81.36
2023-01-01T20:50:04.142Z,83.70
2023-01-01T20:53:06.253Z,83.67
2023-01-01T20:56:09.823Z,84.88
2023-01-01T20:59:34.101Z,84.50
2023-01-01T21:02:36.637Z,83.54
2023-01-01T21:05:40.792Z,83.51
2023-01-01T21:08:43.639Z,83.77
2023-01-01T21:11:46.898Z,84.58
2023-01-01T21:14:49.724Z,84.35
2023-01-01T21:21:23.168Z,83.82
2023-01-01T21:24:28.078Z,83.63
2023-01-01T21:27:34.994Z,84.55
2023-01-01T21:30:41.031Z,83.34
2023-01-01T21:33:46.292Z,84.02
2023-01-01T21:36:50.873Z,84.27
2023-01-01T21:39:55.074Z,84.04
2023-01-01T21:43:16.564Z,85.21
2023-01-01T21:46:38.098Z,84.86
2023-01-01T21:49:40.806Z,83.74
2023-01-01T21:52:47.489Z,82.57
2023-01-01T21:55:54.065Z,81.97
2023-01-01T21:59:27.773Z,81.38
2023-01-01T22:02:40.141Z,81.15
2023-01-01T22:05:43.583Z,81.23
2023-01-01T22:08:48.513Z,80.91
2023-01-01T22:11:56.698Z,79.94
2023-01-01T22:15:29.703Z,79.52
2023-01-01T22:18:38.501Z,79.08
2023-01-01T22:21:40.774Z,78.06
2023-01-01T22:24:50.995Z,77.55
2023-01-01T22:27:54.658Z,77.62
2023-01-01T22:30:59.197Z,77.79
2023-01-01T22:34:03.588Z,77.39
2023-01-01T22:37:20.951Z,77.66
2023-01-01T22:40:31.434Z,77.71
2023-01-01T22:43:36.550Z,77.41
2023-01-01T22:46:41.036Z,77.64
2023-01-01T22:49:53.967Z,77.64
2023-01-01T22:52:57.324Z,77.24
2023-01-01T22:56:01.045Z,77.87
2023-01-01T22:59:03.104Z,77.36
2023-01-01T23:02:06.828Z,77.03
2023-01-01T23:05:10.017Z,77.29
2023-01-01T23:08:12.198Z,77.55
2023-01-01T23:11:15.341Z,76.83
2023-01-01T23:14:39.251Z,76.43
2023-01-01T23:17:41.555Z,76.26
2023-01-01T23:20:43.673Z,76.49
2023-01-01T23:23:48.755Z,76.40
2023-01-01T23:26:51.895Z,75.52
2023-01-01T23:29:56.834Z,75.17
2023-01-01T23:33:00.798Z,75.87
2023-01-01T23:36:04.150Z,74.58
2023-01-01T23:39:06.588Z,74.80
2023-01-01T23:42:08.730Z,74.45
2023-01-01T23:45:11.053Z,75.02
2023-01-01T23:48:14.244Z,74.84
2023-01-01T23:51:19.406Z,75.79
2023-01-01T23:54:22.156Z,75.80
2023-01-01T23:57:24.253Z,75.95
